SEMTSEQM

Guest
Details From SEMT - ELOY ALFARO INTL
To SEQM - Quito - Mariscal Sucre Intl
Flight Number -
Tags generated
Created
Modified
Stats Distance 148 nm / 274 km
Max Altitude 19,100 ft / 5,822 m
Waypoints 4
Social Downloads 4
Likes 0
Share VATSIM

Download

Looking for another format? Having issues loading an existing format? Contact us
Advertisement - Login to hide

Notes

Basic altitude profile: - Ascent Rate: 2500ft/min - Ascent Speed: 250kts - Cruise Altitude: 35000ft - Cruise Speed: 420kts - Descent Rate: 1500ft/min - Descent Speed: 250kts Options: - Use NATs: yes - Use PACOTS: yes - Use low airways: yes - Use high airways: yes

Route

SEMT AMARI W6 OROLA SEQM

ID Type Via Altitude Latitude Longitude Leg Dist Tot Dist Heading (true) Name
O SEMT APT - 0 ft / 0 m -0.94608˚ -80.67881˚ - 0 nm - ELOY ALFARO INTL
AMARI FIX - 7,500 ft / 2,286 m -0.83333˚ -80.34444˚ 21 nm 21 nm 71° / 71° -
OROLA FIX W6 (AWY-LO) 19,100 ft / 5,822 m -0.64306˚ -79.75222˚ 37 nm 58 nm 72° / 72° -
O SEQM APT - 0 ft / 0 m -0.12409˚ -78.35438˚ 89 nm 148 nm 70° / 70° Quito - Mariscal Sucre Intl

Altitude Profile

Advertisement - Login to hide

SEMT

Details ICAO SEMT (MEC)
Name ELOY ALFARO INTL
Region Equador
Timezone America/Guayaquil (UTC-5.0)
Stats Elevation 48 ft / 15 m (AMSL)
Location -0.946078° -80.678807°
Runways 1
Magnetic Variation 1.863° W

METAR

SEMT 122300Z 22006KT 9999 OVC023 25/22 Q1012 RMK A2990

Decode

TAF

Not found

Departure Runways

ID Width Length Bearing (true) Bearing (mag) Surface Threshold Offset Overrun Length
05 148 ft / 45 m 9,384 ft / 2,860 m 55.66° 57.52° Asphalt 0 ft / 0 m 470 ft / 143 m
23 148 ft / 45 m 9,384 ft / 2,860 m 235.66° 237.52° Asphalt 0 ft / 0 m 980 ft / 299 m

SEQM

Details ICAO SEQM
Name Quito - Mariscal Sucre Intl
Region Equador
Timezone America/Guayaquil (UTC-5.0)
Stats Elevation 7,841 ft / 2,390 m (AMSL)
Location -0.124089° -78.354381°
Runways 1
Magnetic Variation 3.593° W

METAR

SEQM 122300Z 02007KT 9999 SCT030 BKN100 16/10 Q1025 NOSIG RMK A3029

Decode

TAF

Not found

Destination Runways

ID Width Length Bearing (true) Bearing (mag) Surface Threshold Offset Overrun Length
18 171 ft / 52 m 13,524 ft / 4,122 m 177.61° 181.20° Asphalt 0 ft / 0 m 177 ft / 54 m
36 171 ft / 52 m 13,524 ft / 4,122 m 357.61° 1.20° Asphalt 0 ft / 0 m 184 ft / 56 m

Approach Navaids

Runway Type Ident Frequency Range Bearing (true) Bearing (mag) Slope Elevation
18 Localiser IQN 111.10 MHz 18 nm / 33 km 177.61° 181.20° - 7,841 ft / 2,390 m (AMSL)
18 Glidescope IQN 111.10 MHz 10 nm / 19 km 177.61° 181.20° 3.20° 7,841 ft / 2,390 m (AMSL)
36 Localiser IQS 109.30 MHz 18 nm / 33 km 357.61° 1.20° - 7,841 ft / 2,390 m (AMSL)
36 Glidescope IQS 109.30 MHz 10 nm / 19 km 357.61° 1.20° 3.20° 7,841 ft / 2,390 m (AMSL)

Popular Alternatives